createdAt,value
2019-03-11T00:01:35.538Z,35.20
2019-03-11T00:04:06.162Z,36.38
2019-03-11T00:06:36.358Z,34.92
2019-03-11T00:09:06.929Z,37.03
2019-03-11T00:11:36.689Z,36.08
2019-03-11T00:14:06.746Z,36.53
2019-03-11T00:16:36.655Z,37.38
2019-03-11T00:19:06.932Z,35.78
2019-03-11T00:21:36.764Z,36.85
2019-03-11T00:24:06.942Z,36.88
2019-03-11T00:26:36.877Z,38.20
2019-03-11T00:29:06.836Z,38.10
2019-03-11T00:31:36.549Z,37.30
2019-03-11T00:34:06.570Z,36.88
2019-03-11T00:36:36.389Z,38.10
2019-03-11T00:39:06.224Z,38.25
2019-03-11T00:41:35.972Z,38.67
2019-03-11T00:44:08.368Z,36.28
2019-03-11T00:46:38.120Z,38.33
2019-03-11T00:49:08.090Z,37.60
2019-03-11T00:51:37.910Z,41.00
2019-03-11T00:54:07.764Z,38.70
2019-03-11T00:56:37.823Z,39.40
2019-03-11T00:59:07.799Z,38.73
2019-03-11T01:01:37.578Z,39.83
2019-03-11T01:04:07.379Z,41.20
2019-03-11T01:06:37.260Z,41.13
2019-03-11T01:09:07.752Z,42.62
2019-03-11T01:11:37.647Z,40.25
2019-03-11T01:14:07.555Z,42.15
2019-03-11T01:16:37.331Z,40.95
2019-03-11T01:19:07.374Z,41.08
2019-03-11T01:21:37.261Z,43.63
2019-03-11T01:24:07.376Z,44.13
2019-03-11T01:26:37.264Z,42.50
2019-03-11T01:29:07.270Z,44.00
2019-03-11T01:31:37.416Z,42.75
2019-03-11T01:34:07.395Z,44.58
2019-03-11T01:36:37.313Z,43.17
2019-03-11T01:39:07.925Z,44.73
2019-03-11T01:41:37.844Z,44.83
2019-03-11T01:44:07.641Z,45.08
2019-03-11T01:46:37.790Z,44.38
2019-03-11T01:49:07.844Z,45.10
2019-03-11T01:51:37.608Z,45.50
2019-03-11T01:54:07.400Z,43.68
2019-03-11T01:56:37.243Z,43.80
2019-03-11T01:59:07.149Z,44.98
2019-03-11T02:01:37.163Z,46.13
2019-03-11T02:04:07.070Z,45.15
2019-03-11T02:06:36.930Z,45.60
2019-03-11T02:09:06.942Z,46.30
2019-03-11T02:11:36.836Z,46.83
2019-03-11T02:14:06.689Z,48.85
2019-03-11T02:16:36.866Z,44.53
2019-03-11T02:19:06.583Z,46.60
2019-03-11T02:21:36.768Z,46.85
2019-03-11T02:24:06.730Z,48.48
2019-03-11T02:26:39.572Z,49.58
2019-03-11T02:29:09.469Z,49.40
2019-03-11T02:31:39.195Z,50.35
2019-03-11T02:34:09.183Z,49.35
2019-03-11T02:36:39.003Z,48.17
2019-03-11T02:39:08.979Z,50.95
2019-03-11T02:41:38.753Z,52.43
2019-03-11T02:44:08.745Z,49.58
2019-03-11T02:46:38.643Z,54.40
2019-03-11T02:49:08.887Z,49.48
2019-03-11T02:51:38.770Z,46.77
2019-03-11T02:54:08.540Z,51.00
2019-03-11T02:56:38.421Z,49.00
2019-03-11T02:59:08.140Z,50.05
2019-03-11T03:02:12.626Z,53.98
2019-03-11T03:04:49.121Z,49.38
2019-03-11T03:07:18.889Z,51.53
2019-03-11T03:09:48.761Z,51.83
2019-03-11T03:12:18.929Z,55.10
2019-03-11T03:14:49.968Z,51.63
2019-03-11T03:17:19.757Z,54.20
2019-03-11T03:19:49.518Z,53.35
2019-03-11T03:22:19.231Z,51.23
2019-03-11T03:24:49.149Z,50.67
2019-03-11T03:27:19.122Z,51.23
2019-03-11T03:29:49.013Z,50.98
2019-03-11T03:32:18.953Z,52.43
2019-03-11T03:34:49.037Z,50.90
2019-03-11T03:37:18.780Z,54.25
2019-03-11T03:39:48.723Z,54.67
2019-03-11T03:42:19.009Z,53.38
2019-03-11T03:45:19.868Z,55.75
2019-03-11T03:47:49.939Z,52.33
2019-03-11T03:50:19.978Z,51.88
2019-03-11T03:52:49.891Z,51.98
2019-03-11T03:55:19.827Z,52.48
2019-03-11T03:57:50.496Z,51.42
2019-03-11T04:00:20.256Z,54.18
2019-03-11T04:02:50.567Z,56.55
2019-03-11T04:05:20.425Z,49.80
2019-03-11T04:07:50.497Z,53.48
2019-03-11T04:10:20.521Z,54.05
2019-03-11T04:12:50.835Z,51.25
2019-03-11T04:15:20.595Z,55.03
2019-03-11T04:17:50.618Z,50.60
2019-03-11T04:20:20.758Z,51.08
2019-03-11T04:22:50.902Z,52.95
2019-03-11T04:25:20.552Z,50.65
2019-03-11T04:27:50.471Z,53.23
2019-03-11T04:30:22.086Z,53.73
2019-03-11T04:32:51.722Z,49.27
2019-03-11T04:35:21.784Z,48.78
2019-03-11T04:37:51.853Z,44.80
2019-03-11T04:40:22.115Z,47.90
2019-03-11T04:42:52.104Z,52.53
2019-03-11T04:45:22.266Z,51.68
2019-03-11T04:47:52.236Z,47.43
2019-03-11T04:50:22.325Z,48.60
2019-03-11T04:52:52.146Z,47.90
2019-03-11T04:55:22.876Z,47.20
2019-03-11T04:57:53.024Z,48.60
2019-03-11T05:00:25.121Z,49.05
2019-03-11T05:02:54.900Z,49.55
2019-03-11T05:05:25.628Z,43.23
2019-03-11T05:07:56.027Z,47.08
2019-03-11T05:10:26.799Z,43.33
2019-03-11T05:12:57.037Z,46.33
2019-03-11T05:15:26.983Z,46.53
2019-03-11T05:17:57.000Z,44.55
2019-03-11T05:20:26.863Z,46.53
2019-03-11T05:22:56.770Z,40.98
2019-03-11T05:25:26.932Z,43.85
2019-03-11T05:27:57.090Z,45.33
2019-03-11T05:30:27.142Z,42.93
2019-03-11T05:32:57.952Z,41.40
2019-03-11T05:35:27.926Z,41.33
2019-03-11T05:37:58.551Z,44.38
2019-03-11T05:40:28.678Z,39.65
2019-03-11T05:42:58.915Z,40.05
2019-03-11T05:45:28.666Z,35.35
2019-03-11T05:47:58.901Z,35.45
2019-03-11T05:50:29.507Z,34.03
2019-03-11T05:53:00.539Z,39.10
2019-03-11T05:55:30.776Z,36.73
2019-03-11T05:58:00.866Z,34.48
2019-03-11T06:00:31.298Z,30.60
2019-03-11T06:03:01.294Z,31.12
2019-03-11T06:05:31.493Z,30.80
2019-03-11T06:08:02.047Z,33.23
2019-03-11T06:10:32.066Z,34.65
2019-03-11T06:13:02.037Z,28.40
2019-03-11T06:15:32.099Z,27.60
2019-03-11T06:18:02.133Z,24.52
2019-03-11T06:20:51.546Z,23.25
2019-03-11T06:23:21.744Z,22.45
2019-03-11T06:25:52.282Z,23.62
2019-03-11T06:28:22.183Z,26.75
2019-03-11T06:30:52.146Z,28.47
2019-03-11T06:33:22.118Z,30.55
2019-03-11T06:35:52.540Z,38.60
2019-03-11T06:38:22.819Z,42.15
2019-03-11T06:40:52.707Z,38.17
2019-03-11T06:43:22.836Z,34.98
2019-03-11T06:45:52.927Z,28.62
2019-03-11T06:48:23.529Z,21.97
2019-03-11T06:50:53.560Z,26.02
2019-03-11T06:53:23.536Z,21.25
2019-03-11T06:55:53.628Z,23.57
2019-03-11T06:58:23.562Z,20.48
2019-03-11T07:00:53.761Z,20.68
2019-03-11T07:03:23.583Z,22.17
2019-03-11T07:05:54.088Z,17.80
2019-03-11T07:08:24.937Z,14.70
2019-03-11T07:10:54.868Z,18.27
2019-03-11T07:13:24.920Z,17.20
2019-03-11T07:15:56.780Z,17.77
2019-03-11T07:18:26.440Z,17.80
2019-03-11T07:20:56.351Z,18.10
2019-03-11T07:23:26.654Z,16.32
2019-03-11T07:25:56.804Z,15.58
2019-03-11T07:28:27.041Z,3.60
2019-03-11T07:31:02.058Z,11.45
2019-03-11T07:33:32.302Z,11.60
2019-03-11T07:36:03.099Z,12.03
2019-03-11T07:38:33.843Z,10.88
2019-03-11T07:41:05.019Z,8.48
2019-03-11T07:43:35.055Z,10.18
2019-03-11T07:46:05.351Z,8.68
2019-03-11T07:48:35.477Z,12.43
2019-03-11T07:51:05.610Z,10.30
2019-03-11T07:53:35.780Z,9.20
2019-03-11T07:56:07.110Z,13.72
2019-03-11T07:58:37.556Z,13.20
2019-03-11T08:01:08.109Z,13.40
2019-03-11T08:03:41.176Z,8.30
2019-03-11T08:06:18.519Z,11.45
2019-03-11T08:08:43.883Z,10.93
2019-03-11T08:11:13.984Z,13.72
2019-03-11T08:13:44.144Z,10.65
2019-03-11T08:16:15.465Z,13.38
2019-03-11T08:18:46.027Z,11.50
2019-03-11T08:21:16.457Z,10.70
2019-03-11T08:23:46.453Z,10.60
2019-03-11T08:26:16.775Z,13.03
2019-03-11T08:28:49.732Z,8.88
2019-03-11T08:31:20.275Z,11.95
2019-03-11T08:33:50.446Z,10.28
2019-03-11T08:36:20.803Z,9.80
2019-03-11T08:38:51.062Z,10.08
2019-03-11T08:41:21.726Z,9.50
2019-03-11T08:43:52.008Z,7.75
2019-03-11T08:46:22.551Z,8.90
2019-03-11T08:48:52.634Z,6.03
2019-03-11T08:51:23.091Z,8.48
2019-03-11T08:53:57.715Z,6.12
2019-03-11T08:56:30.229Z,9.40
2019-03-11T08:59:05.685Z,5.60
2019-03-11T09:01:36.699Z,6.62
2019-03-11T09:04:07.849Z,6.35
2019-03-11T09:06:38.068Z,4.10
2019-03-11T09:09:10.598Z,4.17
2019-03-11T09:11:40.938Z,4.50
2019-03-11T09:14:12.797Z,5.00
2019-03-11T09:16:43.867Z,5.05
2019-03-11T09:19:14.661Z,2.17
2019-03-11T09:21:44.922Z,5.28
2019-03-11T09:24:19.488Z,5.03
2019-03-11T09:26:47.652Z,3.67
2019-03-11T09:29:18.318Z,4.83
2019-03-11T09:31:49.565Z,5.95
2019-03-11T09:34:20.054Z,5.45
2019-03-11T09:36:50.218Z,3.75
2019-03-11T09:39:23.763Z,4.28
2019-03-11T09:41:54.391Z,3.10
2019-03-11T09:44:25.359Z,3.33
2019-03-11T09:46:58.814Z,2.55
2019-03-11T09:49:30.506Z,3.25
2019-03-11T09:52:01.674Z,2.90
2019-03-11T09:54:32.443Z,3.00
2019-03-11T09:57:02.665Z,4.53
2019-03-11T09:59:33.797Z,3.75
2019-03-11T10:02:04.162Z,4.67
2019-03-11T10:04:34.701Z,3.70
2019-03-11T10:07:07.381Z,4.08
2019-03-11T10:09:39.241Z,6.25
2019-03-11T10:12:09.571Z,4.22
2019-03-11T10:14:40.038Z,3.77
2019-03-11T10:17:10.728Z,4.45
2019-03-11T10:19:40.975Z,3.47
2019-03-11T10:22:10.802Z,3.15
2019-03-11T10:24:41.021Z,2.55
2019-03-11T10:27:11.193Z,3.27
2019-03-11T10:29:41.102Z,3.42
2019-03-11T10:32:11.365Z,3.47
2019-03-11T10:34:41.538Z,5.42
2019-03-11T10:37:13.929Z,3.50
2019-03-11T10:39:44.242Z,2.17
2019-03-11T10:42:15.152Z,2.80
2019-03-11T10:44:46.001Z,3.12
2019-03-11T10:47:19.394Z,3.22
2019-03-11T10:49:52.068Z,3.50
2019-03-11T10:52:22.591Z,3.45
2019-03-11T10:54:52.643Z,2.87
2019-03-11T10:57:22.833Z,4.35
2019-03-11T10:59:53.573Z,3.45
2019-03-11T11:02:24.009Z,3.15
2019-03-11T11:04:55.242Z,1.75
2019-03-11T11:07:25.499Z,2.15
2019-03-11T11:09:55.950Z,1.72
2019-03-11T11:12:26.140Z,2.10
2019-03-11T11:14:56.244Z,1.80
2019-03-11T11:17:26.416Z,3.27
2019-03-11T11:20:03.549Z,2.08
2019-03-11T11:22:31.916Z,1.98
2019-03-11T11:25:02.213Z,2.20
2019-03-11T11:27:32.566Z,2.00
2019-03-11T11:30:02.958Z,2.37
2019-03-11T11:32:33.990Z,1.98
2019-03-11T11:35:04.458Z,1.95
2019-03-11T11:37:34.943Z,1.90
2019-03-11T11:40:06.906Z,2.45
2019-03-11T11:42:36.844Z,2.25
2019-03-11T11:45:17.091Z,1.85
2019-03-11T11:47:47.378Z,2.00
2019-03-11T11:50:18.218Z,3.00
2019-03-11T11:52:48.547Z,2.65
2019-03-11T11:55:20.818Z,6.67
2019-03-11T11:57:52.119Z,2.72
2019-03-11T12:00:27.628Z,3.80
2019-03-11T12:02:57.757Z,2.05
2019-03-11T12:05:28.770Z,3.85
2019-03-11T12:08:02.550Z,2.02
2019-03-11T12:10:32.867Z,3.10
2019-03-11T12:13:03.792Z,4.53
2019-03-11T12:15:33.821Z,1.80
2019-03-11T12:18:03.599Z,3.80
2019-03-11T12:20:33.764Z,3.45
2019-03-11T12:23:04.163Z,1.80
2019-03-11T12:25:34.277Z,2.33
2019-03-11T12:28:06.885Z,2.70
2019-03-11T12:30:37.935Z,2.87
2019-03-11T12:33:09.176Z,2.58
2019-03-11T12:35:39.433Z,3.10
2019-03-11T12:38:09.695Z,3.15
2019-03-11T12:40:39.885Z,2.15
2019-03-11T12:43:10.004Z,2.95
2019-03-11T12:45:42.117Z,2.87
2019-03-11T12:48:12.977Z,5.50
2019-03-11T12:50:43.391Z,4.40
2019-03-11T12:53:15.192Z,2.52
2019-03-11T12:55:48.348Z,2.50
2019-03-11T12:58:18.920Z,2.42
2019-03-11T13:00:49.762Z,3.08
2019-03-11T13:03:26.927Z,3.12
2019-03-11T13:06:01.223Z,3.37
2019-03-11T13:11:24.460Z,8.73
2019-03-11T13:13:55.182Z,3.90
2019-03-11T13:16:25.458Z,5.10
2019-03-11T13:18:57.822Z,3.90
2019-03-11T13:21:33.662Z,2.17
2019-03-11T13:24:04.651Z,4.00
2019-03-11T13:26:34.999Z,4.40
2019-03-11T13:29:05.387Z,4.50
2019-03-11T13:31:35.607Z,4.50
2019-03-11T13:34:05.728Z,2.95
2019-03-11T13:36:36.285Z,3.58
2019-03-11T13:39:07.061Z,4.37
2019-03-11T13:41:37.347Z,2.83
2019-03-11T13:44:10.506Z,4.90
2019-03-11T13:46:40.457Z,3.70
2019-03-11T13:49:10.475Z,4.90
2019-03-11T13:51:44.093Z,6.75
2019-03-11T13:54:14.287Z,2.85
2019-03-11T13:56:44.725Z,3.47
2019-03-11T13:59:15.037Z,4.78
2019-03-11T14:01:45.282Z,3.50
2019-03-11T14:04:15.565Z,4.00
2019-03-11T14:06:45.526Z,3.02
2019-03-11T14:09:17.169Z,2.85
2019-03-11T14:11:47.292Z,3.00
2019-03-11T14:14:20.080Z,3.33
2019-03-11T14:16:50.531Z,3.62
2019-03-11T14:19:21.278Z,3.25
2019-03-11T14:21:51.444Z,3.10
2019-03-11T14:24:21.830Z,5.60
2019-03-11T14:26:52.005Z,3.50
2019-03-11T14:29:24.544Z,3.50
2019-03-11T14:31:54.660Z,4.87
2019-03-11T14:34:25.046Z,2.52
2019-03-11T14:36:55.509Z,3.47
2019-03-11T14:39:26.755Z,2.95
2019-03-11T14:41:57.071Z,3.75
2019-03-11T14:44:27.119Z,4.22
2019-03-11T14:46:57.812Z,4.45
2019-03-11T14:49:28.237Z,2.95
2019-03-11T14:51:58.814Z,3.62
2019-03-11T14:54:28.988Z,5.00
2019-03-11T14:56:59.377Z,4.90
2019-03-11T14:59:31.819Z,3.47
2019-03-11T15:02:02.379Z,4.37
2019-03-11T15:04:32.804Z,2.70
2019-03-11T15:07:03.128Z,4.00
2019-03-11T15:09:33.330Z,4.70
2019-03-11T15:12:03.521Z,5.00
2019-03-11T15:14:34.671Z,4.75
2019-03-11T15:17:04.799Z,5.03
2019-03-11T15:19:35.247Z,3.47
2019-03-11T15:22:05.529Z,5.12
2019-03-11T15:24:35.958Z,5.05
2019-03-11T15:27:06.216Z,3.58
2019-03-11T15:29:37.041Z,3.85
2019-03-11T15:32:07.516Z,4.42
2019-03-11T15:34:39.549Z,3.92
2019-03-11T15:37:09.868Z,3.08
2019-03-11T15:39:39.834Z,3.50
2019-03-11T15:42:09.979Z,2.92
2019-03-11T15:44:40.187Z,3.47
2019-03-11T15:47:10.369Z,16.07
2019-03-11T15:49:40.211Z,4.42
2019-03-11T15:52:10.201Z,3.52
2019-03-11T15:54:40.686Z,3.33
2019-03-11T15:57:10.788Z,2.45
2019-03-11T15:59:40.797Z,3.40
2019-03-11T16:02:10.864Z,2.98
2019-03-11T16:04:40.719Z,3.25
2019-03-11T16:07:11.346Z,3.30
2019-03-11T16:09:41.573Z,4.35
2019-03-11T16:12:11.565Z,5.55
2019-03-11T16:14:48.851Z,4.87
2019-03-11T16:17:13.549Z,3.37
2019-03-11T16:19:44.618Z,4.62
2019-03-11T16:22:22.800Z,3.25
2019-03-11T16:24:47.060Z,4.35
2019-03-11T16:27:17.936Z,3.52
2019-03-11T16:29:50.336Z,4.28
2019-03-11T16:32:23.668Z,4.03
2019-03-11T16:34:54.388Z,4.03
2019-03-11T16:37:25.557Z,3.50
2019-03-11T16:40:00.768Z,2.42
2019-03-11T16:42:39.963Z,3.27
2019-03-11T16:45:11.986Z,2.90
2019-03-11T16:47:42.778Z,2.45
2019-03-11T16:50:14.249Z,3.83
2019-03-11T16:52:45.538Z,3.00
2019-03-11T16:55:20.203Z,2.58
2019-03-11T16:57:50.124Z,2.35
2019-03-11T17:00:23.255Z,2.77
2019-03-11T17:02:53.253Z,3.77
2019-03-11T17:05:23.187Z,4.65
2019-03-11T17:07:53.150Z,3.20
2019-03-11T17:10:23.756Z,2.80
2019-03-11T17:12:54.787Z,2.83
2019-03-11T17:15:24.885Z,3.20
2019-03-11T17:17:55.312Z,3.40
2019-03-11T17:20:25.202Z,2.70
2019-03-11T17:22:55.220Z,2.90
2019-03-11T17:25:25.107Z,3.20
2019-03-11T17:27:55.301Z,2.67
2019-03-11T17:30:25.937Z,2.60
2019-03-11T17:32:56.194Z,4.20
2019-03-11T17:35:27.045Z,2.85
2019-03-11T17:37:59.121Z,3.50
2019-03-11T17:40:29.184Z,3.17
2019-03-11T17:42:59.158Z,3.20
2019-03-11T17:45:29.259Z,3.83
2019-03-11T17:47:59.435Z,2.62
2019-03-11T17:50:29.564Z,3.80
2019-03-11T17:52:59.553Z,3.22
2019-03-11T17:55:29.646Z,2.95
2019-03-11T17:58:01.549Z,4.65
2019-03-11T18:00:32.678Z,2.40
2019-03-11T18:03:02.909Z,4.22
2019-03-11T18:05:33.127Z,2.00
2019-03-11T18:08:03.457Z,2.17
2019-03-11T18:10:33.885Z,2.27
2019-03-11T18:13:04.342Z,2.25
2019-03-11T18:15:35.813Z,2.33
2019-03-11T18:18:05.913Z,1.50
2019-03-11T18:20:35.757Z,1.92
2019-03-11T18:23:06.426Z,1.90
2019-03-11T18:25:36.517Z,2.33
2019-03-11T18:28:06.630Z,2.08
2019-03-11T18:30:37.598Z,2.12
2019-03-11T18:33:07.573Z,2.27
2019-03-11T18:35:37.629Z,2.42
2019-03-11T18:38:07.673Z,1.80
2019-03-11T18:40:37.881Z,2.37
2019-03-11T18:43:07.941Z,2.58
2019-03-11T18:45:37.825Z,1.62
2019-03-11T18:48:08.100Z,1.40
2019-03-11T18:50:38.280Z,1.67
2019-03-11T18:53:10.344Z,1.32
2019-03-11T18:55:40.501Z,1.00
2019-03-11T18:58:10.631Z,1.17
2019-03-11T19:00:40.683Z,2.17
2019-03-11T19:03:11.620Z,1.92
2019-03-11T19:05:42.464Z,2.33
2019-03-11T19:08:12.992Z,1.72
2019-03-11T19:10:43.138Z,2.22
2019-03-11T19:13:13.086Z,2.65
2019-03-11T19:15:43.256Z,2.05
2019-03-11T19:18:13.297Z,1.77
2019-03-11T19:20:43.341Z,2.37
2019-03-11T19:23:13.648Z,2.30
2019-03-11T19:25:47.376Z,2.60
2019-03-11T19:28:17.900Z,2.12
2019-03-11T19:30:48.260Z,2.10
2019-03-11T19:33:18.551Z,2.10
2019-03-11T19:35:49.244Z,2.20
2019-03-11T19:38:19.471Z,2.02
2019-03-11T19:40:52.464Z,1.90
2019-03-11T19:43:22.739Z,2.20
2019-03-11T19:45:52.783Z,1.90
2019-03-11T19:48:22.746Z,2.25
2019-03-11T19:50:53.044Z,2.75
2019-03-11T19:53:25.535Z,1.05
2019-03-11T19:55:55.755Z,1.00
2019-03-11T19:58:25.893Z,2.00
2019-03-11T20:00:56.132Z,1.70
2019-03-11T20:03:30.368Z,1.15
2019-03-11T20:05:58.737Z,1.12
2019-03-11T20:08:28.832Z,2.25
2019-03-11T20:11:01.847Z,2.37
2019-03-11T20:13:32.734Z,1.57
2019-03-11T20:16:03.242Z,1.60
2019-03-11T20:18:33.179Z,2.42
2019-03-11T20:21:03.306Z,2.30
2019-03-11T20:23:33.684Z,2.60
2019-03-11T20:26:03.733Z,2.60
2019-03-11T20:28:33.939Z,1.92
2019-03-11T20:31:04.051Z,2.20
2019-03-11T20:33:34.094Z,1.57
2019-03-11T20:36:05.209Z,2.00
2019-03-11T20:38:35.550Z,3.00
2019-03-11T20:41:05.490Z,2.00
2019-03-11T20:43:36.760Z,1.60
2019-03-11T20:46:07.568Z,2.22
2019-03-11T20:48:40.652Z,1.42
2019-03-11T20:51:12.966Z,2.17
2019-03-11T20:53:53.467Z,2.02
2019-03-11T20:56:27.780Z,2.42
2019-03-11T20:58:58.996Z,2.50
2019-03-11T21:01:30.547Z,1.77
2019-03-11T21:04:00.886Z,2.02
2019-03-11T21:06:31.100Z,1.75
2019-03-11T21:09:01.891Z,2.27
2019-03-11T21:11:31.837Z,3.15
2019-03-11T21:14:01.880Z,2.00
2019-03-11T21:16:32.882Z,1.92
2019-03-11T21:19:02.954Z,2.10
2019-03-11T21:21:34.002Z,2.58
2019-03-11T21:24:04.208Z,2.00
2019-03-11T21:26:34.738Z,3.77
2019-03-11T21:29:07.564Z,1.87
2019-03-11T21:31:37.775Z,1.80
2019-03-11T21:34:09.802Z,2.37
2019-03-11T21:36:40.149Z,1.50
2019-03-11T21:39:10.011Z,1.72
2019-03-11T21:41:40.261Z,2.05
2019-03-11T21:44:10.443Z,2.10
2019-03-11T21:46:40.959Z,1.00
2019-03-11T21:49:11.219Z,1.30
2019-03-11T21:51:41.636Z,2.12
2019-03-11T21:54:11.678Z,2.22
2019-03-11T21:56:41.678Z,1.45
2019-03-11T21:59:12.136Z,1.40
2019-03-11T22:01:42.531Z,2.72
2019-03-11T22:04:12.577Z,2.47
2019-03-11T22:06:43.393Z,1.80
2019-03-11T22:09:13.662Z,1.60
2019-03-11T22:11:43.684Z,2.20
2019-03-11T22:14:15.121Z,1.57
2019-03-11T22:16:45.306Z,1.92
2019-03-11T22:19:15.186Z,2.50
2019-03-11T22:21:45.440Z,1.60
2019-03-11T22:24:15.775Z,1.22
2019-03-11T22:26:46.819Z,1.60
2019-03-11T22:29:16.993Z,1.60
2019-03-11T22:31:46.917Z,0.78
2019-03-11T22:34:16.907Z,1.00
2019-03-11T22:36:47.063Z,1.65
2019-03-11T22:39:19.245Z,0.68
2019-03-11T22:41:49.133Z,1.55
2019-03-11T22:44:19.575Z,0.60
2019-03-11T22:46:49.726Z,1.05
2019-03-11T22:49:20.009Z,1.22
2019-03-11T22:51:50.886Z,2.05
2019-03-11T22:54:22.031Z,1.62
2019-03-11T22:56:52.886Z,1.92
2019-03-11T22:59:23.363Z,1.40
2019-03-11T23:01:53.597Z,1.40
2019-03-11T23:04:26.158Z,1.55
2019-03-11T23:06:56.601Z,1.60
2019-03-11T23:09:26.624Z,1.60
2019-03-11T23:11:56.672Z,2.00
2019-03-11T23:14:26.520Z,2.05
2019-03-11T23:16:56.748Z,1.12
2019-03-11T23:19:26.918Z,1.35
2019-03-11T23:21:56.687Z,1.32
2019-03-11T23:24:26.707Z,1.10
2019-03-11T23:26:56.657Z,1.10
2019-03-11T23:29:26.817Z,1.10
2019-03-11T23:31:57.020Z,1.07
2019-03-11T23:34:26.965Z,1.15
2019-03-11T23:36:57.319Z,1.20
2019-03-11T23:39:27.725Z,1.30
2019-03-11T23:41:57.855Z,1.30
2019-03-11T23:44:27.998Z,1.12
2019-03-11T23:46:58.112Z,1.10
2019-03-11T23:49:27.792Z,1.15
2019-03-11T23:51:57.795Z,1.10
2019-03-11T23:54:27.992Z,1.30
2019-03-11T23:56:57.716Z,1.47
2019-03-11T23:59:28.082Z,1.55
